Paines Hollow, New York
Current Conditions -  °F | °C
As of 12:53 PM on Friday 24 Oct 2014 (Local Time) from KRME Reporting Station
Overcast Overcast  
Wind Chill: 59°   Ceiling: 5500
Heat Index: 59°   Visibility: 10mi
Dew Point: 43°   Wind: 13mph
Humidity: 55%   Direction: 280°W
Pressure: 29.87"   Gusts: NA
Location:  42.9627°N, 74.9432°W
Report Text: KRME 241653Z 28011KT 10SM OVC055 15/06 A2987 RMK AO2 SLP116 T01500061
Loading
Personal Weather Stations






























Interactive Weather Map
Tropical Storm Tracking
New forecast layout! Learn more

10-Day Weather Forecast

Advertisements
Track Severe Weather on mobile